Time;durP1;ratioP1;P1;durP2;ratioP2;P2;SDS_P1;SDS_P2;PMS_P1;PMS_P2;Temp;Humidity;BMP_temperature;BMP_pressure;BME280_temperature;BME280_humidity;BME280_pressure;Samples;Min_cycle;Max_cycle;Signal;HPM_P1;HPM_P2
2024/02/28 00:00:39;;;;;;;;;0.00;0.00;;;;;9.95;100.00;101932.34;6294279;22;28312;-83
2024/02/28 00:03:04;;;;;;;;;0.00;0.00;;;;;9.94;100.00;101940.19;6294139;22;28528;-80
2024/02/28 00:05:31;;;;;;;;;0.00;0.00;;;;;9.95;100.00;101934.09;6292228;22;57127;-81
2024/02/28 00:07:56;;;;;;;;;0.00;0.00;;;;;9.95;100.00;101934.09;6266765;22;28343;-81
2024/02/28 00:10:21;;;;;;;;;0.00;0.00;;;;;9.93;100.00;101925.44;6292902;22;43234;-81
2024/02/28 00:12:47;;;;;;;;;0.00;0.00;;;;;9.91;100.00;101928.03;6292808;22;46068;-81
2024/02/28 00:15:12;;;;;;;;;0.00;0.00;;;;;9.88;100.00;101921.13;6293151;22;38239;-81
2024/02/28 00:17:41;;;;;;;;;0.00;0.00;;;;;9.90;100.00;101936.72;6266650;22;28325;-82
2024/02/28 00:20:08;;;;;;;;;0.00;0.00;;;;;9.88;100.00;101926.34;6293424;22;28332;-81
2024/02/28 00:22:33;;;;;;;;;0.00;0.00;;;;;9.87;100.00;101927.19;6294245;22;28419;-82
2024/02/28 00:25:01;;;;;;;;;10.00;10.00;;;;;9.88;100.00;101922.88;6293988;22;28352;-81
2024/02/28 00:27:26;;;;;;;;;0.00;0.00;;;;;9.85;100.00;101926.34;6267302;22;28313;-81
2024/02/28 00:29:52;;;;;;;;;0.00;0.00;;;;;9.83;100.00;101919.44;6294050;22;28324;-82
2024/02/28 00:32:17;;;;;;;;;0.00;0.00;;;;;9.81;100.00;101919.44;6265934;22;38556;-81
2024/02/28 00:34:42;;;;;;;;;0.00;0.00;;;;;9.79;100.00;101925.53;6292497;22;54011;-81
2024/02/28 00:37:08;;;;;;;;;0.00;0.00;;;;;9.77;100.00;101924.66;6266595;22;28309;-82
2024/02/28 00:39:33;;;;;;;;;0.00;0.00;;;;;9.72;100.00;101927.31;6266092;22;39703;-81
2024/02/28 00:41:59;;;;;;;;;0.00;0.00;;;;;9.71;100.00;101937.72;6293524;22;36796;-82
2024/02/28 00:44:24;;;;;;;;;0.00;0.00;;;;;9.69;100.00;101942.91;6293822;22;28337;-81
2024/02/28 00:46:50;;;;;;;;;0.00;0.00;;;;;9.68;100.00;101938.59;6293956;22;28449;-83
2024/02/28 00:49:15;;;;;;;;;0.00;0.00;;;;;9.65;100.00;101930.81;6292278;22;43840;-82
2024/02/28 00:51:40;;;;;;;;;0.00;0.00;;;;;9.64;100.00;101934.31;6291806;22;28419;-82
2024/02/28 00:54:05;;;;;;;;;0.00;0.00;;;;;9.58;100.00;101929.13;6291246;22;45707;-82
2024/02/28 00:56:31;;;;;;;;;0.00;0.00;;;;;9.58;100.00;101934.31;6293606;22;28715;-82
2024/02/28 00:58:57;;;;;;;;;0.00;0.00;;;;;9.53;100.00;101936.06;6293839;22;28430;-82
2024/02/28 01:01:22;;;;;;;;;0.00;0.00;;;;;9.54;100.00;101933.47;6266443;22;28426;-82
2024/02/28 01:03:47;;;;;;;;;0.00;0.00;;;;;9.50;100.00;101939.56;6290689;22;54991;-82
2024/02/28 01:06:13;;;;;;;;;0.00;0.00;;;;;9.49;100.00;101930.91;6291422;22;53850;-81
2024/02/28 01:08:38;;;;;;;;;0.00;0.00;;;;;9.42;100.00;101930.94;6265371;22;49315;-82
2024/02/28 01:11:03;;;;;;;;;0.00;0.00;;;;;9.38;100.00;101918.81;6293391;22;28503;-81
2024/02/28 01:13:29;;;;;;;;;0.00;0.00;;;;;9.32;100.00;101929.25;6293268;22;28487;-82
2024/02/28 01:15:54;;;;;;;;;0.00;0.00;;;;;9.25;100.00;101933.63;6293715;22;28297;-82
2024/02/28 01:18:20;;;;;;;;;0.00;0.00;;;;;9.18;100.00;101925.00;6292832;22;36184;-81
2024/02/28 01:20:45;;;;;;;;;0.00;0.00;;;;;9.11;100.00;101923.28;6292862;22;50729;-81
2024/02/28 01:23:10;;;;;;;;;0.00;0.00;;;;;9.08;100.00;101918.97;6293672;22;28388;-81
2024/02/28 01:25:36;;;;;;;;;0.00;0.00;;;;;9.04;100.00;101918.97;6292697;22;52297;-81
2024/02/28 01:28:01;;;;;;;;;0.00;0.00;;;;;8.99;100.00;101915.53;6293907;22;28249;-81
2024/02/28 01:30:26;;;;;;;;;0.00;0.00;;;;;8.93;100.00;101916.41;6293843;22;28305;-81
2024/02/28 01:32:52;;;;;;;;;0.00;0.00;;;;;8.92;100.00;101919.88;6263849;22;53246;-81
2024/02/28 01:35:17;;;;;;;;;0.00;0.00;;;;;8.84;100.00;101919.03;6266331;22;28278;-81
2024/02/28 01:37:42;;;;;;;;;0.00;0.00;;;;;8.83;100.00;101912.13;6293181;22;38127;-81
2024/02/28 01:40:08;;;;;;;;;0.00;0.00;;;;;8.80;100.00;101914.72;6292104;22;47294;-81
2024/02/28 01:42:33;;;;;;;;;0.00;0.00;;;;;8.77;100.00;101907.81;6254807;22;44667;-81
2024/02/28 01:44:59;;;;;;;;;0.00;0.00;;;;;8.76;100.00;101915.59;6278514;22;44523;-81
2024/02/28 01:47:24;;;;;;;;;0.00;0.00;;;;;8.77;100.00;101919.94;6258884;22;69229;-81
2024/02/28 01:49:50;;;;;;;;;0.00;0.00;;;;;8.75;100.00;101921.66;6292574;22;49355;-82
2024/02/28 01:52:17;;;;;;;;;0.00;0.00;;;;;8.74;100.00;101927.72;6265517;22;33402;-81
2024/02/28 01:54:43;;;;;;;;;0.00;0.00;;;;;8.72;100.00;101928.56;6263292;22;54087;-81
2024/02/28 01:57:08;;;;;;;;;0.00;0.00;;;;;8.75;100.00;101934.63;6288168;22;40158;-81
2024/02/28 01:59:34;;;;;;;;;0.00;0.00;;;;;8.73;100.00;101932.06;6266557;22;28412;-81
2024/02/28 02:02:00;;;;;;;;;0.00;0.00;;;;;8.67;100.00;101926.88;6264733;22;57751;-81
2024/02/28 02:04:25;;;;;;;;;0.00;0.00;;;;;8.65;100.00;101919.06;6293259;22;34787;-81
2024/02/28 02:06:53;;;;;;;;;0.00;0.00;;;;;8.65;100.00;101926.00;6264818;22;52335;-81
2024/02/28 02:09:19;;;;;;;;;0.00;0.00;;;;;8.65;100.00;101913.88;6293012;22;28297;-81
2024/02/28 02:11:44;;;;;;;;;0.00;0.00;;;;;8.60;100.00;101906.97;6293523;22;29355;-81
2024/02/28 02:14:10;;;;;;;;;0.00;0.00;;;;;8.54;100.00;101920.81;6265092;22;53466;-81
2024/02/28 02:16:35;;;;;;;;;0.00;0.00;;;;;8.51;100.00;101918.25;6265894;22;28397;-81
2024/02/28 02:19:01;;;;;;;;;0.00;0.00;;;;;8.46;100.00;101919.97;6293407;22;28419;-81
2024/02/28 02:21:53;;;;;;;;;0.00;0.00;;;;;8.39;100.00;101924.28;6293052;22;29255;-81
2024/02/28 02:24:18;;;;;;;;;0.00;0.00;;;;;8.32;100.00;101914.75;6257964;22;44942;-82
2024/02/28 02:26:46;;;;;;;;;0.00;0.00;;;;;8.33;100.00;101917.34;6273466;22;67217;-82
2024/02/28 02:29:12;;;;;;;;;0.00;0.00;;;;;8.35;100.00;101925.16;6246846;22;45112;-81
2024/02/28 02:31:37;;;;;;;;;0.00;0.00;;;;;8.35;100.00;101925.16;6247759;22;45628;-82
2024/02/28 02:34:02;;;;;;;;;0.00;0.00;;;;;8.38;100.00;101921.72;6273598;22;69307;-82
2024/02/28 02:36:28;;;;;;;;;0.00;0.00;;;;;8.25;100.00;101911.31;6273956;22;67156;-81
2024/02/28 02:38:53;;;;;;;;;0.00;0.00;;;;;8.24;100.00;101912.19;6274486;22;68174;-81
2024/02/28 02:41:18;;;;;;;;;0.00;0.00;;;;;8.26;100.00;101919.97;6246521;22;46174;-81
2024/02/28 02:43:44;;;;;;;;;0.00;0.00;;;;;8.23;100.00;101915.66;6275567;22;45065;-81
2024/02/28 02:46:09;;;;;;;;;0.00;0.00;;;;;8.22;100.00;101913.91;6274148;22;65564;-81
2024/02/28 02:48:35;;;;;;;;;0.00;0.00;;;;;8.22;100.00;101921.69;6246183;22;45416;-81
2024/02/28 02:51:00;;;;;;;;;0.00;0.00;;;;;8.22;100.00;101910.47;6273374;22;46148;-82
2024/02/28 02:53:25;;;;;;;;;0.00;0.00;;;;;8.21;100.00;101921.69;6272776;22;57735;-81
2024/02/28 02:55:51;;;;;;;;;0.00;0.00;;;;;8.22;100.00;101919.09;6272435;22;62745;-81
2024/02/28 02:58:16;;;;;;;;;0.00;0.00;;;;;8.21;100.00;101922.56;6271582;22;69908;-82
2024/02/28 03:00:41;;;;;;;;;0.00;0.00;;;;;8.17;100.00;101938.97;6272764;22;59772;-82
2024/02/28 03:03:07;;;;;;;;;0.00;0.00;;;;;8.13;100.00;101938.13;6272447;22;71058;-82
2024/02/28 03:05:32;;;;;;;;;0.00;0.00;;;;;8.11;100.00;101938.97;6270612;22;61696;-82
2024/02/28 03:07:57;;;;;;;;;0.00;0.00;;;;;8.10;100.00;101940.72;6272734;22;50043;-81
2024/02/28 03:10:23;;;;;;;;;0.00;0.00;;;;;8.12;100.00;101945.91;6272897;22;46064;-82
2024/02/28 03:12:48;;;;;;;;;0.00;0.00;;;;;8.12;100.00;101953.69;6245053;22;62746;-82
2024/02/28 03:15:13;;;;;;;;;0.00;0.00;;;;;8.11;100.00;101960.59;6244637;22;64663;-82
2024/02/28 03:17:38;;;;;;;;;0.00;0.00;;;;;8.10;100.00;101977.03;6245019;22;58909;-82
2024/02/28 03:20:07;;;;;;;;;0.00;0.00;;;;;8.14;100.00;101970.13;6272221;22;68641;-82
2024/02/28 03:22:32;;;;;;;;;0.00;0.00;;;;;8.14;100.00;101970.13;6273111;22;45382;-81
2024/02/28 03:24:57;;;;;;;;;0.00;0.00;;;;;8.08;100.00;101977.91;6272198;22;67931;-82
2024/02/28 03:27:24;;;;;;;;;0.00;0.00;;;;;8.08;100.00;101967.53;6272467;22;45560;-82
2024/02/28 03:29:49;;;;;;;;;0.00;0.00;;;;;8.08;100.00;101964.94;6245852;22;73277;-82
2024/02/28 03:32:15;;;;;;;;;0.00;0.00;;;;;8.09;100.00;101961.47;6273656;22;59467;-82
2024/02/28 03:34:40;;;;;;;;;0.00;0.00;;;;;8.02;100.00;101959.72;6274081;22;55544;-82
2024/02/28 03:37:05;;;;;;;;;0.00;0.00;;;;;7.99;100.00;101959.72;6274517;22;45258;-82
2024/02/28 03:39:31;;;;;;;;;0.00;0.00;;;;;7.98;100.00;101968.38;6273983;22;55034;-81
2024/02/28 03:41:56;;;;;;;;;0.00;0.00;;;;;7.95;100.00;101962.31;6246931;22;45249;-82
2024/02/28 03:44:22;;;;;;;;;0.00;0.00;;;;;7.97;100.00;101969.22;6246985;22;45298;-82
2024/02/28 03:46:47;;;;;;;;;0.00;0.00;;;;;7.97;100.00;101977.00;6246060;22;57213;-82
2024/02/28 03:49:12;;;;;;;;;0.00;0.00;;;;;7.93;100.00;101978.72;6273635;22;72886;-82
2024/02/28 03:51:41;;;;;;;;;0.00;0.00;;;;;7.95;100.00;101974.41;6271485;22;69398;-82
2024/02/28 03:54:06;;;;;;;;;0.00;0.00;;;;;7.89;100.00;101980.47;6246098;22;69486;-82
2024/02/28 03:56:32;;;;;;;;;0.00;0.00;;;;;7.91;100.00;101976.13;6273313;22;67555;-82
2024/02/28 03:58:57;;;;;;;;;0.00;0.00;;;;;7.88;100.00;101976.13;6272839;22;68836;-82
2024/02/28 04:01:22;;;;;;;;;0.00;0.00;;;;;7.88;100.00;101970.09;6273433;22;68559;-82
2024/02/28 04:03:47;;;;;;;;;0.00;0.00;;;;;7.87;100.00;101966.59;6274454;22;47922;-82
2024/02/28 04:06:13;;;;;;;;;0.00;0.00;;;;;7.88;100.00;101955.38;6271376;22;68440;-82
2024/02/28 04:08:40;;;;;;;;;0.00;0.00;;;;;7.90;100.00;101953.66;6247211;22;45337;-82
2024/02/28 04:11:06;;;;;;;;;0.00;0.00;;;;;7.86;100.00;101941.56;6246329;22;45220;-82
2024/02/28 04:13:31;;;;;;;;;0.00;0.00;;;;;7.87;100.00;101950.19;6273826;22;58949;-82
2024/02/28 04:15:56;;;;;;;;;0.00;0.00;;;;;7.87;100.00;101958.81;6246468;22;62593;-82
2024/02/28 04:18:22;;;;;;;;;0.00;0.00;;;;;7.87;100.00;101963.16;6246502;22;46408;-82
2024/02/28 04:20:47;;;;;;;;;0.00;0.00;;;;;7.81;100.00;101966.59;6273436;22;70294;-82
2024/02/28 04:23:12;;;;;;;;;0.00;0.00;;;;;7.80;100.00;101966.59;6246902;22;45308;-82
2024/02/28 04:25:40;;;;;;;;;0.00;0.00;;;;;7.79;100.00;101970.06;6272990;22;64085;-82
2024/02/28 04:28:06;;;;;;;;;0.00;0.00;;;;;7.74;100.00;101964.84;6273666;22;46308;-81
2024/02/28 04:30:31;;;;;;;;;0.00;0.00;;;;;7.73;100.00;101966.59;6274062;22;45427;-82
2024/02/28 04:32:56;;;;;;;;;0.00;0.00;;;;;7.71;100.00;101968.31;6273677;22;60892;-82
2024/02/28 04:35:22;;;;;;;;;0.00;0.00;;;;;7.72;100.00;101972.63;6246894;22;45508;-82
2024/02/28 04:37:47;;;;;;;;;0.00;0.00;;;;;7.73;100.00;101974.34;6274404;22;45371;-82
2024/02/28 04:40:12;;;;;;;;;0.00;0.00;;;;;7.72;100.00;101976.94;6273288;22;45351;-82
2024/02/28 04:42:39;;;;;;;;;0.00;0.00;;;;;7.69;100.00;101975.22;6273768;22;59381;-82
2024/02/28 04:45:05;;;;;;;;;0.00;0.00;;;;;7.67;100.00;101976.94;6273873;22;45325;-82
2024/02/28 04:47:30;;;;;;;;;0.00;0.00;;;;;7.65;100.00;101970.91;6246328;22;46451;-82
2024/02/28 04:49:56;;;;;;;;;0.00;0.00;;;;;7.65;100.00;101975.19;6273539;22;66766;-82
2024/02/28 04:52:22;;;;;;;;;0.00;0.00;;;;;7.96;100.00;101963.16;6247332;22;45630;-82
2024/02/28 04:54:48;;;;;;;;;0.00;0.00;;;;;7.96;100.00;101976.13;6272001;22;45421;-81
2024/02/28 04:57:13;;;;;;;;;0.00;0.00;;;;;7.98;100.00;101979.59;6246416;22;46177;-82
2024/02/28 04:59:39;;;;;;;;;0.00;0.00;;;;;7.97;100.00;101977.88;6246790;22;45581;-82
2024/02/28 05:02:05;;;;;;;;;0.00;0.00;;;;;7.92;100.00;101979.59;6273098;22;62769;-81
2024/02/28 05:04:30;;;;;;;;;0.00;0.00;;;;;7.56;100.00;101976.06;6274354;22;45232;-82
2024/02/28 05:06:55;;;;;;;;;0.00;0.00;;;;;7.51;100.00;101977.75;6246899;22;46173;-82
2024/02/28 05:09:20;;;;;;;;;0.00;0.00;;;;;7.47;100.00;101984.66;6272508;22;69699;-82
2024/02/28 05:11:46;;;;;;;;;0.00;0.00;;;;;7.44;100.00;101984.63;6246319;22;58415;-82
2024/02/28 05:14:11;;;;;;;;;0.00;0.00;;;;;7.41;100.00;101987.22;6246438;22;45271;-82
2024/02/28 05:16:37;;;;;;;;;0.00;0.00;;;;;7.41;100.00;101991.50;6273132;22;68974;-82
2024/02/28 05:19:04;;;;;;;;;0.00;0.00;;;;;7.66;100.00;101989.91;6272771;22;63977;-82
2024/02/28 05:21:29;;;;;;;;;0.00;0.00;;;;;7.41;100.00;102000.19;6246831;22;45345;-82
2024/02/28 05:23:54;;;;;;;;;0.00;0.00;;;;;7.37;100.00;101995.81;6273759;22;45307;-81
2024/02/28 05:26:20;;;;;;;;;0.00;0.00;;;;;7.37;100.00;102008.75;6273426;22;59653;-82
2024/02/28 05:28:45;;;;;;;;;0.00;0.00;;;;;7.35;100.00;102001.00;6272850;22;71400;-82
2024/02/28 05:31:33;;;;;;;;;0.00;0.00;;;;;7.41;100.00;102012.25;6274305;22;45290;-82
2024/02/28 05:34:00;;;;;;;;;0.00;0.00;;;;;7.44;100.00;102007.94;6247413;22;45528;-82
2024/02/28 05:36:27;;;;;;;;;0.00;0.00;;;;;7.45;100.00;102014.00;6272363;22;47339;-82
2024/02/28 05:38:54;;;;;;;;;0.00;0.00;;;;;7.48;100.00;102011.41;6273298;22;45412;-82
2024/02/28 05:41:20;;;;;;;;;0.00;0.00;;;;;7.50;100.00;102018.34;6274655;22;45318;-82
2024/02/28 05:43:48;;;;;;;;;0.00;0.00;;;;;7.53;100.00;102005.38;6273851;22;45421;-82
2024/02/28 05:46:17;;;;;;;;;0.00;0.00;;;;;7.51;100.00;101999.34;6246821;22;45437;-82
2024/02/28 05:48:45;;;;;;;;;0.00;0.00;;;;;7.53;100.00;101995.03;6272149;22;45666;-82
2024/02/28 05:51:12;;;;;;;;;0.00;0.00;;;;;7.55;100.00;101998.47;6274135;22;45266;-82
2024/02/28 05:53:38;;;;;;;;;0.00;0.00;;;;;7.54;100.00;102001.06;6246147;22;45219;-82
2024/02/28 05:56:04;;;;;;;;;0.00;0.00;;;;;7.58;100.00;102008.00;6273661;22;46939;-82
2024/02/28 05:58:29;;;;;;;;;0.00;0.00;;;;;7.66;100.00;102008.88;6273683;22;45287;-82
2024/02/28 06:01:00;;;;;;;;;0.00;0.00;;;;;7.73;100.00;102002.00;6247935;22;45312;-81
2024/02/28 06:03:25;;;;;;;;;0.00;0.00;;;;;7.81;100.00;101996.84;6273296;22;67876;-82
2024/02/28 06:05:52;;;;;;;;;0.00;0.00;;;;;7.84;100.00;101994.28;6272509;22;75463;-82
2024/02/28 06:08:17;;;;;;;;;0.00;0.00;;;;;7.89;100.00;101995.13;6273078;22;45226;-81
2024/02/28 06:10:42;;;;;;;;;0.00;0.00;;;;;7.93;100.00;102002.03;6272847;22;67579;-82
2024/02/28 06:13:08;;;;;;;;;0.00;0.00;;;;;7.97;100.00;101996.03;6274125;22;45381;-81
2024/02/28 06:15:33;;;;;;;;;0.00;0.00;;;;;7.95;100.00;101992.56;6272783;22;66628;-82
2024/02/28 06:18:02;;;;;;;;;0.00;0.00;;;;;7.94;100.00;101994.28;6273617;22;45212;-82
2024/02/28 06:20:27;;;;;;;;;0.00;0.00;;;;;7.91;100.00;102001.19;6274078;22;45309;-82
2024/02/28 06:22:53;;;;;;;;;0.00;0.00;;;;;7.88;100.00;102003.78;6246502;22;45369;-83
2024/02/28 06:25:22;;;;;;;;;0.00;0.00;;;;;7.86;100.00;102008.97;6272788;22;68723;-82
2024/02/28 06:27:47;;;;;;;;;0.00;0.00;;;;;7.84;100.00;102015.00;6246818;22;45263;-82
2024/02/28 06:30:13;;;;;;;;;0.00;0.00;;;;;7.83;100.00;102013.28;6273424;22;45214;-82
2024/02/28 06:32:38;;;;;;;;;0.00;0.00;;;;;7.85;100.00;102015.00;6273515;22;45371;-82
2024/02/28 06:35:05;;;;;;;;;0.00;0.00;;;;;7.87;100.00;102015.84;6272881;22;56588;-81
2024/02/28 06:37:31;;;;;;;;;0.00;0.00;;;;;7.90;100.00;102025.38;6271356;22;45367;-82
2024/02/28 06:39:56;;;;;;;;;0.00;0.00;;;;;7.94;100.00;102035.75;6272810;22;62043;-82
2024/02/28 06:42:21;;;;;;;;;0.00;0.00;;;;;7.92;100.00;102031.44;6272437;22;62834;-80
2024/02/28 06:44:47;;;;;;;;;0.00;0.00;;;;;7.95;100.00;102031.47;6273848;22;45541;-81
2024/02/28 06:47:12;;;;;;;;;0.00;0.00;;;;;7.95;100.00;102042.69;6245111;22;67378;-81
2024/02/28 06:49:37;;;;;;;;;0.00;0.00;;;;;8.01;100.00;102043.56;6272742;22;65587;-83
2024/02/28 06:52:03;;;;;;;;;0.00;0.00;;;;;8.07;100.00;102049.63;6271971;22;67171;-83
2024/02/28 06:54:28;;;;;;;;;0.00;0.00;;;;;8.11;100.00;102034.94;6245408;22;46571;-83
2024/02/28 06:56:55;;;;;;;;;0.00;0.00;;;;;8.15;100.00;102041.84;6244694;22;73341;-83
2024/02/28 06:59:20;;;;;;;;;0.00;0.00;;;;;8.17;100.00;102041.88;6272856;22;45296;-84
2024/02/28 07:01:45;;;;;;;;;0.00;0.00;;;;;8.28;100.00;102045.34;6271674;22;45231;-84
2024/02/28 07:04:11;;;;;;;;;0.00;0.00;;;;;8.37;100.00;102041.91;6271694;22;71239;-83
2024/02/28 07:06:36;;;;;;;;;0.00;0.00;;;;;8.41;100.00;102041.88;6272895;22;45373;-83
2024/02/28 07:09:02;;;;;;;;;0.00;0.00;;;;;8.49;100.00;102047.16;6244517;22;67925;-83
2024/02/28 07:11:27;;;;;;;;;0.00;0.00;;;;;8.54;100.00;102045.41;6245594;22;45294;-82
2024/02/28 07:13:52;;;;;;;;;0.00;0.00;;;;;8.62;100.00;102048.88;6272295;22;65210;-83
2024/02/28 07:16:18;;;;;;;;;0.00;0.00;;;;;8.75;100.00;102049.75;6272833;22;57371;-86
2024/02/28 07:18:43;;;;;;;;;0.00;0.00;;;;;8.76;100.00;102051.47;6272752;22;47405;-85
2024/02/28 07:21:09;;;;;;;;;0.00;0.00;;;;;8.79;100.00;102043.69;6272945;22;45234;-84
2024/02/28 07:23:34;;;;;;;;;0.00;0.00;;;;;8.87;100.00;102047.13;6272974;22;46457;-85
2024/02/28 07:25:59;;;;;;;;;0.00;0.00;;;;;8.92;100.00;102044.53;6270880;22;60299;-83
2024/02/28 07:28:32;;;;;;;;;0.00;0.00;;;;;9.02;100.00;102053.16;6244031;22;65229;-84
2024/02/28 07:30:57;;;;;;;;;0.00;0.00;;;;;9.14;100.00;102049.69;6272721;22;45081;-83
2024/02/28 07:33:23;;;;;;;;;0.00;0.00;;;;;9.20;100.00;102044.50;6244755;22;71175;-84
2024/02/28 07:35:51;;;;;;;;;0.00;0.00;;;;;9.26;100.00;102045.31;6244515;22;52644;-83
2024/02/28 07:38:19;;;;;;;;;0.00;0.00;;;;;9.32;100.00;102052.22;6246055;22;45339;-83
2024/02/28 07:40:45;;;;;;;;;0.00;0.00;;;;;9.34;100.00;102047.91;6272957;22;45366;-83
2024/02/28 07:43:10;;;;;;;;;0.00;0.00;;;;;9.37;100.00;102055.69;6271416;22;48043;-85
2024/02/28 07:45:36;;;;;;;;;2.00;2.00;;;;;9.42;100.00;102061.75;6244791;22;58974;-85
2024/02/28 07:48:01;;;;;;;;;0.00;0.00;;;;;9.52;100.00;102062.56;6273144;22;45332;-85
2024/02/28 07:50:26;;;;;;;;;0.00;0.00;;;;;9.53;100.00;102064.31;6270485;22;45193;-84
2024/02/28 07:52:55;;;;;;;;;0.00;0.00;;;;;9.65;100.00;102068.59;6271737;22;68114;-85
2024/02/28 07:55:22;;;;;;;;;0.00;0.00;;;;;9.68;100.00;102068.59;6261549;22;45749;-86
2024/02/28 07:57:47;;;;;;;;;0.00;0.00;;;;;9.73;100.00;102068.56;6246569;22;45287;-86
2024/02/28 08:00:13;;;;;;;;;0.00;0.00;;;;;9.78;100.00;102072.03;6271119;22;46059;-84
2024/02/28 08:02:39;;;;;;;;;2.50;2.50;;;;;9.85;100.00;102076.31;6244214;22;45409;-85
2024/02/28 08:05:04;;;;;;;;;0.00;0.00;;;;;9.93;100.00;102068.47;6272374;22;45250;-86
2024/02/28 08:07:32;;;;;;;;;0.00;0.00;;;;;10.00;100.00;102078.00;6246169;22;45258;-85
2024/02/28 08:09:58;;;;;;;;;0.00;0.00;;;;;10.05;100.00;102081.44;6219089;22;47532;-85
2024/02/28 08:12:23;;;;;;;;;0.00;0.00;;;;;10.13;100.00;102073.59;6245029;22;61866;-86
2024/02/28 08:14:48;;;;;;;;;1.00;1.00;;;;;10.20;100.00;102078.75;6273066;22;45230;-85
2024/02/28 08:17:14;;;;;;;;;0.00;0.00;;;;;10.25;100.00;102079.59;6246319;22;57777;-85
2024/02/28 08:19:41;;;;;;;;;0.00;0.00;;;;;10.23;100.00;102081.34;6281860;22;45499;-85
2024/02/28 08:22:06;;;;;;;;;19.00;19.00;;;;;10.26;100.00;102088.25;6246221;22;46371;-85
2024/02/28 08:24:32;;;;;;;;;0.00;0.00;;;;;10.30;100.00;102086.50;6246145;22;68779;-85
2024/02/28 08:26:57;;;;;;;;;0.00;0.00;;;;;10.43;100.00;102094.22;6245559;22;59888;-85
2024/02/28 08:29:22;;;;;;;;;0.00;0.00;;;;;10.53;100.00;102095.06;6246535;22;45383;-85
2024/02/28 08:31:48;;;;;;;;;0.00;0.00;;;;;10.60;100.00;102099.31;6273747;22;46601;-84
2024/02/28 08:34:13;;;;;;;;;0.00;0.00;;;;;10.67;100.00;102097.53;6246438;22;57851;-85
2024/02/28 08:36:38;;;;;;;;;0.00;0.00;;;;;10.74;100.00;102091.41;6220362;22;54393;-86
2024/02/28 08:39:04;;;;;;;;;0.00;0.00;;;;;10.80;100.00;102098.31;6245318;22;59002;-85
2024/02/28 08:41:34;;;;;;;;;0.00;0.00;;;;;10.90;100.00;102086.06;6273685;22;45428;-85
2024/02/28 08:43:59;;;;;;;;;0.00;0.00;;;;;11.01;100.00;102085.13;6247140;22;45658;-85
2024/02/28 08:46:24;;;;;;;;;4.00;4.00;;;;;11.10;100.00;102083.28;6272315;22;45350;-85
2024/02/28 08:48:50;;;;;;;;;0.00;0.00;;;;;11.13;100.00;102085.88;6246007;22;45402;-86
2024/02/28 08:51:17;;;;;;;;;0.00;0.00;;;;;11.18;100.00;102084.94;6245238;22;68153;-86
2024/02/28 08:53:43;;;;;;;;;0.00;0.00;;;;;11.29;100.00;102081.34;6281338;22;45437;-85
2024/02/28 08:56:08;;;;;;;;;0.00;0.00;;;;;11.36;100.00;102081.28;6245915;22;64793;-85
2024/02/28 08:58:33;;;;;;;;;0.00;0.00;;;;;11.48;100.00;102069.88;6280867;22;63506;-86
2024/02/28 09:00:59;;;;;;;;;0.00;0.00;;;;;11.56;100.00;102075.00;6279582;22;45291;-85
2024/02/28 09:03:24;;;;;;;;;0.00;0.00;;;;;11.62;100.00;102067.94;6246226;22;66079;-85
2024/02/28 09:05:49;;;;;;;;;0.00;0.00;;;;;11.68;100.00;102071.34;6246850;22;45485;-85
2024/02/28 09:08:15;;;;;;;;;0.00;0.00;;;;;11.73;100.00;102070.41;6246582;22;45450;-85
2024/02/28 09:10:40;;;;;;;;;0.00;0.00;;;;;11.76;100.00;102064.31;6246139;22;45256;-85
2024/02/28 09:13:06;;;;;;;;;0.00;0.00;;;;;11.75;100.00;102073.88;6246514;22;45426;-85
2024/02/28 09:15:32;;;;;;;;;0.00;0.00;;;;;11.76;100.00;102074.75;6246597;22;45345;-85
2024/02/28 09:17:57;;;;;;;;;0.00;0.00;;;;;11.81;100.00;102075.53;6220925;22;45378;-85
2024/02/28 09:20:22;;;;;;;;;0.00;0.00;;;;;11.82;100.00;102072.91;6272181;22;64013;-85
2024/02/28 09:22:48;;;;;;;;;0.00;0.00;;;;;11.85;100.00;102076.34;6272901;22;61269;-85
2024/02/28 09:25:15;;;;;;;;;0.00;0.00;;;;;11.90;100.00;102077.19;6246350;22;45275;-85
2024/02/28 09:27:41;;;;;;;;;0.00;0.00;;;;;11.94;100.00;102079.78;6246651;22;45430;-86
2024/02/28 09:30:07;;;;;;;;;0.00;0.00;;;;;11.97;100.00;102081.47;6271666;22;70887;-85
2024/02/28 09:32:32;;;;;;;;;0.00;0.00;;;;;12.05;100.00;102086.56;6245694;22;45508;-86
2024/02/28 09:34:58;;;;;;;;;0.00;0.00;;;;;12.09;100.00;102083.03;6246901;22;45302;-85
2024/02/28 09:37:24;;;;;;;;;0.00;0.00;;;;;12.20;100.00;102087.25;6246493;22;45322;-85
2024/02/28 09:39:50;;;;;;;;;0.00;0.00;;;;;12.25;100.00;102091.53;6272926;22;45388;-86
2024/02/28 09:42:16;;;;;;;;;0.00;0.00;;;;;12.40;100.00;102086.91;6245677;22;45279;-85
2024/02/28 09:44:42;;;;;;;;;0.00;0.00;;;;;12.56;100.00;102087.56;6273932;22;45361;-86
2024/02/28 09:47:08;;;;;;;;;0.00;0.00;;;;;12.70;100.00;102100.44;6246739;22;45453;-85
2024/02/28 09:49:37;;;;;;;;;5.25;5.25;;;;;12.95;100.00;102092.16;6246370;22;46262;-85
2024/02/28 09:52:03;;;;;;;;;0.00;0.00;;;;;13.22;100.00;102088.19;6246281;22;45375;-86
2024/02/28 09:54:29;;;;;;;;;0.00;0.00;;;;;13.42;100.00;102084.38;6246461;22;45316;-86
2024/02/28 09:56:55;;;;;;;;;0.00;0.00;;;;;13.63;100.00;102085.69;6246258;22;45568;-86
2024/02/28 09:59:21;;;;;;;;;0.00;0.00;;;;;13.81;100.00;102089.69;6272443;22;45714;-85
2024/02/28 10:01:55;;;;;;;;;0.00;0.00;;;;;13.98;100.00;102089.34;6246141;22;45275;-86
2024/02/28 10:04:24;;;;;;;;;0.00;0.00;;;;;14.14;100.00;102083.72;6273308;22;45329;-85
2024/02/28 10:06:50;;;;;;;;;0.00;0.00;;;;;14.35;100.00;102081.50;6246669;22;45556;-85
2024/02/28 10:09:16;;;;;;;;;0.00;0.00;;;;;14.57;100.00;102089.75;6245561;22;46046;-85
2024/02/28 10:11:43;;;;;;;;;0.00;0.00;;;;;14.71;100.00;102086.81;6271519;22;45691;-86
2024/02/28 10:14:08;;;;;;;;;3.25;3.25;;;;;14.74;100.00;102093.75;6245980;22;45168;-86
2024/02/28 10:16:34;;;;;;;;;0.00;0.00;;;;;14.89;100.00;102093.34;6246135;22;45265;-86
2024/02/28 10:18:59;;;;;;;;;0.00;0.00;;;;;15.05;100.00;102093.81;6273429;22;45983;-86
2024/02/28 10:21:26;;;;;;;;;0.00;0.00;;;;;15.09;100.00;102092.84;6271481;22;52377;-86
2024/02/28 10:23:51;;;;;;;;;0.00;0.00;;;;;15.22;100.00;102088.97;6246829;22;45278;-86
2024/02/28 10:26:16;;;;;;;;;0.00;0.00;;;;;15.26;100.00;102082.75;6273556;22;45077;-85
2024/02/28 10:28:43;;;;;;;;;0.00;0.00;;;;;15.34;100.00;102085.19;6272612;22;46247;-85
2024/02/28 10:31:10;;;;;;;;;0.00;0.00;;;;;15.39;100.00;102092.91;6246330;22;45172;-86
2024/02/28 10:33:36;;;;;;;;;0.00;0.00;;;;;15.34;100.00;102093.06;6248581;22;45125;-86
2024/02/28 10:36:02;;;;;;;;;0.00;0.00;;;;;15.26;100.00;102092.38;6290049;22;42762;-84
2024/02/28 10:38:28;;;;;;;;;0.00;0.00;;;;;15.16;100.00;102090.94;6268062;22;29175;-86
2024/02/28 10:40:54;;;;;;;;;0.00;0.00;;;;;15.05;100.00;102088.59;6266579;22;39774;-87
2024/02/28 10:43:19;;;;;;;;;0.00;0.00;;;;;15.00;100.00;102093.94;6291509;22;28485;-85
2024/02/28 10:45:46;;;;;;;;;0.00;0.00;;;;;14.92;100.00;102092.44;6265079;22;28356;-86
2024/02/28 10:48:14;;;;;;;;;0.00;0.00;;;;;14.70;100.00;102101.66;6292635;22;29121;-86
2024/02/28 10:50:39;;;;;;;;;0.00;0.00;;;;;14.56;100.00;102101.13;6274629;22;44935;-87
2024/02/28 10:53:12;;;;;;;;;0.00;0.00;;;;;14.46;100.00;102084.75;6248092;22;45250;-86
2024/02/28 10:55:40;;;;;;;;;0.00;0.00;;;;;14.49;100.00;102091.69;6256273;22;44979;-88
2024/02/28 10:58:10;;;;;;;;;0.00;0.00;;;;;14.38;100.00;102102.41;6263519;22;45638;-86
2024/02/28 11:00:38;;;;;;;;;0.00;0.00;;;;;14.30;100.00;102102.59;6289224;22;44167;-87
2024/02/28 11:03:04;;;;;;;;;0.00;0.00;;;;;14.23;100.00;102105.38;6285703;22;43884;-87
2024/02/28 11:05:40;;;;;;;;;0.00;0.00;;;;;14.21;100.00;102122.84;6257170;22;45184;-86
2024/02/28 11:08:10;;;;;;;;;0.00;0.00;;;;;14.18;100.00;102117.72;6248566;22;46168;-87
2024/02/28 11:10:36;;;;;;;;;0.00;0.00;;;;;14.16;100.00;102122.13;6272194;22;45027;-87
2024/02/28 11:13:01;;;;;;;;;0.00;0.00;;;;;14.18;100.00;102122.94;6246058;22;44608;-86
2024/02/28 11:15:27;;;;;;;;;0.00;0.00;;;;;14.20;100.00;102122.00;6279333;22;44929;-86